sensor_id;sensor_type;location;lat;lon;timestamp;P1;durP1;ratioP1;P2;durP2;ratioP2
64710;SDS011;51139;45.626;6.850;2023-02-25T00:00:23;15.00;;;4.78;;
64710;SDS011;51139;45.626;6.850;2023-02-25T00:02:49;22.98;;;5.68;;
64710;SDS011;51139;45.626;6.850;2023-02-25T00:05:15;17.42;;;5.63;;
64710;SDS011;51139;45.626;6.850;2023-02-25T00:07:42;17.45;;;6.53;;
64710;SDS011;51139;45.626;6.850;2023-02-25T00:10:09;13.13;;;5.10;;
64710;SDS011;51139;45.626;6.850;2023-02-25T00:12:36;16.65;;;5.40;;
64710;SDS011;51139;45.626;6.850;2023-02-25T00:15:03;16.00;;;5.30;;
64710;SDS011;51139;45.626;6.850;2023-02-25T00:17:30;13.85;;;4.63;;
64710;SDS011;51139;45.626;6.850;2023-02-25T00:19:56;15.02;;;4.25;;
64710;SDS011;51139;45.626;6.850;2023-02-25T00:22:22;13.77;;;4.47;;
64710;SDS011;51139;45.626;6.850;2023-02-25T00:24:52;13.70;;;4.78;;
64710;SDS011;51139;45.626;6.850;2023-02-25T00:27:21;15.27;;;5.07;;
64710;SDS011;51139;45.626;6.850;2023-02-25T00:29:51;15.95;;;5.13;;
64710;SDS011;51139;45.626;6.850;2023-02-25T00:32:17;14.38;;;4.07;;
64710;SDS011;51139;45.626;6.850;2023-02-25T00:34:43;15.80;;;4.28;;
64710;SDS011;51139;45.626;6.850;2023-02-25T00:37:08;19.15;;;5.63;;
64710;SDS011;51139;45.626;6.850;2023-02-25T00:39:34;18.35;;;5.07;;
64710;SDS011;51139;45.626;6.850;2023-02-25T00:42:08;16.33;;;4.65;;
64710;SDS011;51139;45.626;6.850;2023-02-25T00:44:44;12.00;;;4.35;;
64710;SDS011;51139;45.626;6.850;2023-02-25T00:49:38;19.20;;;4.93;;
64710;SDS011;51139;45.626;6.850;2023-02-25T00:52:03;16.55;;;5.10;;
64710;SDS011;51139;45.626;6.850;2023-02-25T00:54:29;15.25;;;4.65;;
64710;SDS011;51139;45.626;6.850;2023-02-25T00:56:54;21.60;;;5.47;;
64710;SDS011;51139;45.626;6.850;2023-02-25T00:59:20;21.33;;;5.47;;
64710;SDS011;51139;45.626;6.850;2023-02-25T01:01:45;18.25;;;4.90;;
64710;SDS011;51139;45.626;6.850;2023-02-25T01:04:11;16.02;;;4.90;;
64710;SDS011;51139;45.626;6.850;2023-02-25T01:06:36;14.35;;;4.68;;
64710;SDS011;51139;45.626;6.850;2023-02-25T01:09:03;15.52;;;4.45;;
64710;SDS011;51139;45.626;6.850;2023-02-25T01:11:32;12.93;;;4.70;;
64710;SDS011;51139;45.626;6.850;2023-02-25T01:14:01;17.95;;;5.47;;
64710;SDS011;51139;45.626;6.850;2023-02-25T01:16:29;14.75;;;5.15;;
64710;SDS011;51139;45.626;6.850;2023-02-25T01:18:57;13.13;;;5.00;;
64710;SDS011;51139;45.626;6.850;2023-02-25T01:21:25;13.63;;;5.10;;
64710;SDS011;51139;45.626;6.850;2023-02-25T01:23:54;20.38;;;5.75;;
64710;SDS011;51139;45.626;6.850;2023-02-25T01:28:50;18.70;;;4.80;;
64710;SDS011;51139;45.626;6.850;2023-02-25T01:31:16;15.77;;;4.93;;
64710;SDS011;51139;45.626;6.850;2023-02-25T01:33:42;18.10;;;6.00;;
64710;SDS011;51139;45.626;6.850;2023-02-25T01:36:08;19.23;;;6.00;;
64710;SDS011;51139;45.626;6.850;2023-02-25T01:38:34;16.13;;;5.25;;
64710;SDS011;51139;45.626;6.850;2023-02-25T01:41:00;18.90;;;4.47;;
64710;SDS011;51139;45.626;6.850;2023-02-25T01:43:26;16.70;;;4.35;;
64710;SDS011;51139;45.626;6.850;2023-02-25T01:45:53;11.88;;;4.05;;
64710;SDS011;51139;45.626;6.850;2023-02-25T01:48:23;14.00;;;5.63;;
64710;SDS011;51139;45.626;6.850;2023-02-25T01:50:53;14.45;;;4.80;;
64710;SDS011;51139;45.626;6.850;2023-02-25T01:53:27;19.10;;;5.32;;
64710;SDS011;51139;45.626;6.850;2023-02-25T01:55:57;15.93;;;5.15;;
64710;SDS011;51139;45.626;6.850;2023-02-25T01:58:24;13.95;;;4.68;;
64710;SDS011;51139;45.626;6.850;2023-02-25T02:00:51;16.85;;;5.60;;
64710;SDS011;51139;45.626;6.850;2023-02-25T02:03:19;12.75;;;5.40;;
64710;SDS011;51139;45.626;6.850;2023-02-25T02:05:53;16.15;;;4.72;;
64710;SDS011;51139;45.626;6.850;2023-02-25T02:08:23;19.70;;;5.93;;
64710;SDS011;51139;45.626;6.850;2023-02-25T02:10:50;13.90;;;5.40;;
64710;SDS011;51139;45.626;6.850;2023-02-25T02:13:16;19.48;;;6.47;;
64710;SDS011;51139;45.626;6.850;2023-02-25T02:15:44;20.30;;;6.82;;
64710;SDS011;51139;45.626;6.850;2023-02-25T02:18:23;18.05;;;5.88;;
64710;SDS011;51139;45.626;6.850;2023-02-25T02:24:01;17.23;;;7.45;;
64710;SDS011;51139;45.626;6.850;2023-02-25T02:29:33;23.63;;;7.40;;
64710;SDS011;51139;45.626;6.850;2023-02-25T02:35:20;19.45;;;6.35;;
64710;SDS011;51139;45.626;6.850;2023-02-25T02:40:36;16.88;;;6.32;;
64710;SDS011;51139;45.626;6.850;2023-02-25T02:43:14;20.58;;;7.00;;
64710;SDS011;51139;45.626;6.850;2023-02-25T02:46:11;19.08;;;6.65;;
64710;SDS011;51139;45.626;6.850;2023-02-25T02:48:51;18.48;;;6.40;;
64710;SDS011;51139;45.626;6.850;2023-02-25T02:51:25;15.25;;;6.85;;
64710;SDS011;51139;45.626;6.850;2023-02-25T02:54:12;18.92;;;6.97;;
64710;SDS011;51139;45.626;6.850;2023-02-25T02:56:41;17.65;;;7.30;;
64710;SDS011;51139;45.626;6.850;2023-02-25T03:02:16;20.55;;;7.10;;
64710;SDS011;51139;45.626;6.850;2023-02-25T03:04:47;19.92;;;7.50;;
64710;SDS011;51139;45.626;6.850;2023-02-25T03:07:15;17.95;;;6.57;;
64710;SDS011;51139;45.626;6.850;2023-02-25T03:09:48;20.75;;;7.25;;
64710;SDS011;51139;45.626;6.850;2023-02-25T03:12:16;19.58;;;7.60;;
64710;SDS011;51139;45.626;6.850;2023-02-25T03:14:41;19.35;;;6.63;;
64710;SDS011;51139;45.626;6.850;2023-02-25T03:17:18;19.45;;;7.07;;
64710;SDS011;51139;45.626;6.850;2023-02-25T03:20:15;18.92;;;8.15;;
64710;SDS011;51139;45.626;6.850;2023-02-25T03:22:43;18.60;;;6.85;;
64710;SDS011;51139;45.626;6.850;2023-02-25T03:27:41;22.35;;;7.40;;
64710;SDS011;51139;45.626;6.850;2023-02-25T03:30:11;18.75;;;7.03;;
64710;SDS011;51139;45.626;6.850;2023-02-25T03:32:42;16.13;;;7.20;;
64710;SDS011;51139;45.626;6.850;2023-02-25T03:35:11;18.25;;;6.95;;
64710;SDS011;51139;45.626;6.850;2023-02-25T03:37:38;17.50;;;8.20;;
64710;SDS011;51139;45.626;6.850;2023-02-25T03:40:08;19.65;;;6.72;;
64710;SDS011;51139;45.626;6.850;2023-02-25T03:42:38;19.73;;;6.80;;
64710;SDS011;51139;45.626;6.850;2023-02-25T03:45:10;14.40;;;5.85;;
64710;SDS011;51139;45.626;6.850;2023-02-25T03:47:37;17.77;;;6.63;;
64710;SDS011;51139;45.626;6.850;2023-02-25T03:50:21;18.60;;;6.40;;
64710;SDS011;51139;45.626;6.850;2023-02-25T03:52:49;23.75;;;6.95;;
64710;SDS011;51139;45.626;6.850;2023-02-25T03:55:16;20.88;;;7.20;;
64710;SDS011;51139;45.626;6.850;2023-02-25T03:57:43;17.35;;;6.72;;
64710;SDS011;51139;45.626;6.850;2023-02-25T04:02:46;18.40;;;6.38;;
64710;SDS011;51139;45.626;6.850;2023-02-25T04:05:13;15.73;;;6.47;;
64710;SDS011;51139;45.626;6.850;2023-02-25T04:07:40;20.10;;;7.70;;
64710;SDS011;51139;45.626;6.850;2023-02-25T04:10:06;20.65;;;7.40;;
64710;SDS011;51139;45.626;6.850;2023-02-25T04:12:33;16.75;;;7.20;;
64710;SDS011;51139;45.626;6.850;2023-02-25T04:14:58;19.55;;;6.82;;
64710;SDS011;51139;45.626;6.850;2023-02-25T04:17:24;17.23;;;6.65;;
64710;SDS011;51139;45.626;6.850;2023-02-25T04:19:49;19.65;;;6.32;;
64710;SDS011;51139;45.626;6.850;2023-02-25T04:22:15;19.27;;;7.28;;
64710;SDS011;51139;45.626;6.850;2023-02-25T04:24:40;16.75;;;6.60;;
64710;SDS011;51139;45.626;6.850;2023-02-25T04:27:06;17.35;;;6.75;;
64710;SDS011;51139;45.626;6.850;2023-02-25T04:29:31;13.38;;;6.30;;
64710;SDS011;51139;45.626;6.850;2023-02-25T04:31:56;20.17;;;6.55;;
64710;SDS011;51139;45.626;6.850;2023-02-25T04:34:22;18.15;;;6.72;;
64710;SDS011;51139;45.626;6.850;2023-02-25T04:36:47;15.98;;;6.65;;
64710;SDS011;51139;45.626;6.850;2023-02-25T04:39:14;18.23;;;6.53;;
64710;SDS011;51139;45.626;6.850;2023-02-25T04:41:40;19.00;;;7.00;;
64710;SDS011;51139;45.626;6.850;2023-02-25T04:44:07;16.23;;;5.85;;
64710;SDS011;51139;45.626;6.850;2023-02-25T04:46:33;22.58;;;6.97;;
64710;SDS011;51139;45.626;6.850;2023-02-25T04:49:01;15.32;;;7.05;;
64710;SDS011;51139;45.626;6.850;2023-02-25T04:51:26;17.70;;;6.70;;
64710;SDS011;51139;45.626;6.850;2023-02-25T04:53:52;18.73;;;7.88;;
64710;SDS011;51139;45.626;6.850;2023-02-25T04:56:17;16.63;;;6.93;;
64710;SDS011;51139;45.626;6.850;2023-02-25T04:58:43;19.20;;;6.13;;
64710;SDS011;51139;45.626;6.850;2023-02-25T05:01:09;17.17;;;6.30;;
64710;SDS011;51139;45.626;6.850;2023-02-25T05:03:35;12.60;;;5.38;;
64710;SDS011;51139;45.626;6.850;2023-02-25T05:06:01;17.50;;;6.38;;
64710;SDS011;51139;45.626;6.850;2023-02-25T05:08:27;17.85;;;7.22;;
64710;SDS011;51139;45.626;6.850;2023-02-25T05:10:53;14.70;;;6.03;;
64710;SDS011;51139;45.626;6.850;2023-02-25T05:13:18;16.90;;;6.57;;
64710;SDS011;51139;45.626;6.850;2023-02-25T05:15:44;19.38;;;6.90;;
64710;SDS011;51139;45.626;6.850;2023-02-25T05:18:10;21.80;;;6.43;;
64710;SDS011;51139;45.626;6.850;2023-02-25T05:20:39;15.18;;;6.07;;
64710;SDS011;51139;45.626;6.850;2023-02-25T05:23:09;22.45;;;6.13;;
64710;SDS011;51139;45.626;6.850;2023-02-25T05:25:35;19.40;;;6.28;;
64710;SDS011;51139;45.626;6.850;2023-02-25T05:28:05;20.73;;;7.63;;
64710;SDS011;51139;45.626;6.850;2023-02-25T05:30:35;20.93;;;8.37;;
64710;SDS011;51139;45.626;6.850;2023-02-25T05:33:01;19.90;;;6.32;;
64710;SDS011;51139;45.626;6.850;2023-02-25T05:35:27;19.60;;;6.50;;
64710;SDS011;51139;45.626;6.850;2023-02-25T05:37:52;17.67;;;6.22;;
64710;SDS011;51139;45.626;6.850;2023-02-25T05:40:18;18.50;;;5.60;;
64710;SDS011;51139;45.626;6.850;2023-02-25T05:42:44;21.85;;;5.75;;
64710;SDS011;51139;45.626;6.850;2023-02-25T05:45:13;15.68;;;5.45;;
64710;SDS011;51139;45.626;6.850;2023-02-25T05:47:40;17.10;;;5.60;;
64710;SDS011;51139;45.626;6.850;2023-02-25T05:50:05;12.82;;;4.93;;
64710;SDS011;51139;45.626;6.850;2023-02-25T05:52:31;11.25;;;4.70;;
64710;SDS011;51139;45.626;6.850;2023-02-25T05:54:57;13.52;;;5.72;;
64710;SDS011;51139;45.626;6.850;2023-02-25T05:57:22;12.88;;;5.05;;
64710;SDS011;51139;45.626;6.850;2023-02-25T05:59:48;15.27;;;6.45;;
64710;SDS011;51139;45.626;6.850;2023-02-25T06:02:14;18.67;;;5.38;;
64710;SDS011;51139;45.626;6.850;2023-02-25T06:04:39;19.85;;;5.53;;
64710;SDS011;51139;45.626;6.850;2023-02-25T06:07:04;16.95;;;5.00;;
64710;SDS011;51139;45.626;6.850;2023-02-25T06:09:31;14.52;;;5.28;;
64710;SDS011;51139;45.626;6.850;2023-02-25T06:11:58;13.35;;;5.10;;
64710;SDS011;51139;45.626;6.850;2023-02-25T06:14:24;16.38;;;5.10;;
64710;SDS011;51139;45.626;6.850;2023-02-25T06:16:50;18.38;;;5.68;;
64710;SDS011;51139;45.626;6.850;2023-02-25T06:19:20;16.75;;;6.53;;
64710;SDS011;51139;45.626;6.850;2023-02-25T06:21:46;14.45;;;5.80;;
64710;SDS011;51139;45.626;6.850;2023-02-25T06:24:11;15.30;;;5.63;;
64710;SDS011;51139;45.626;6.850;2023-02-25T06:26:37;24.35;;;5.75;;
64710;SDS011;51139;45.626;6.850;2023-02-25T06:29:05;17.23;;;5.50;;
64710;SDS011;51139;45.626;6.850;2023-02-25T06:31:31;15.60;;;4.95;;
64710;SDS011;51139;45.626;6.850;2023-02-25T06:33:58;13.93;;;6.03;;
64710;SDS011;51139;45.626;6.850;2023-02-25T06:36:24;17.83;;;5.35;;
64710;SDS011;51139;45.626;6.850;2023-02-25T06:38:49;13.43;;;5.28;;
64710;SDS011;51139;45.626;6.850;2023-02-25T06:41:17;13.80;;;4.93;;
64710;SDS011;51139;45.626;6.850;2023-02-25T06:43:44;13.10;;;5.65;;
64710;SDS011;51139;45.626;6.850;2023-02-25T06:46:11;17.35;;;5.40;;
64710;SDS011;51139;45.626;6.850;2023-02-25T06:48:38;16.05;;;5.85;;
64710;SDS011;51139;45.626;6.850;2023-02-25T06:51:05;14.80;;;5.38;;
64710;SDS011;51139;45.626;6.850;2023-02-25T06:53:38;12.35;;;4.35;;
64710;SDS011;51139;45.626;6.850;2023-02-25T06:56:05;13.32;;;4.25;;
64710;SDS011;51139;45.626;6.850;2023-02-25T06:58:32;9.65;;;3.90;;
64710;SDS011;51139;45.626;6.850;2023-02-25T07:00:58;12.93;;;3.95;;
64710;SDS011;51139;45.626;6.850;2023-02-25T07:03:24;16.25;;;4.28;;
64710;SDS011;51139;45.626;6.850;2023-02-25T07:05:49;9.90;;;3.67;;
64710;SDS011;51139;45.626;6.850;2023-02-25T07:08:15;15.07;;;4.15;;
64710;SDS011;51139;45.626;6.850;2023-02-25T07:10:40;13.45;;;3.65;;
64710;SDS011;51139;45.626;6.850;2023-02-25T07:13:06;10.88;;;3.95;;
64710;SDS011;51139;45.626;6.850;2023-02-25T07:15:33;14.32;;;3.92;;
64710;SDS011;51139;45.626;6.850;2023-02-25T07:17:59;17.35;;;6.10;;
64710;SDS011;51139;45.626;6.850;2023-02-25T07:20:24;12.88;;;5.07;;
64710;SDS011;51139;45.626;6.850;2023-02-25T07:22:50;14.30;;;4.53;;
64710;SDS011;51139;45.626;6.850;2023-02-25T07:25:15;17.50;;;5.65;;
64710;SDS011;51139;45.626;6.850;2023-02-25T07:27:41;14.15;;;4.40;;
64710;SDS011;51139;45.626;6.850;2023-02-25T07:30:07;11.48;;;4.40;;
64710;SDS011;51139;45.626;6.850;2023-02-25T07:32:34;15.65;;;4.05;;
64710;SDS011;51139;45.626;6.850;2023-02-25T07:35:00;11.98;;;3.97;;
64710;SDS011;51139;45.626;6.850;2023-02-25T07:37:26;10.18;;;3.42;;
64710;SDS011;51139;45.626;6.850;2023-02-25T07:39:51;10.77;;;3.47;;
64710;SDS011;51139;45.626;6.850;2023-02-25T07:42:17;13.73;;;3.50;;
64710;SDS011;51139;45.626;6.850;2023-02-25T07:44:42;12.32;;;3.83;;
64710;SDS011;51139;45.626;6.850;2023-02-25T07:47:07;13.30;;;3.40;;
64710;SDS011;51139;45.626;6.850;2023-02-25T07:49:33;12.02;;;3.42;;
64710;SDS011;51139;45.626;6.850;2023-02-25T07:51:58;11.93;;;3.95;;
64710;SDS011;51139;45.626;6.850;2023-02-25T07:54:24;14.57;;;4.95;;
64710;SDS011;51139;45.626;6.850;2023-02-25T07:56:50;13.57;;;5.20;;
64710;SDS011;51139;45.626;6.850;2023-02-25T07:59:16;17.65;;;6.22;;
64710;SDS011;51139;45.626;6.850;2023-02-25T08:01:43;12.80;;;4.93;;
64710;SDS011;51139;45.626;6.850;2023-02-25T08:04:09;17.25;;;4.97;;
64710;SDS011;51139;45.626;6.850;2023-02-25T08:06:35;14.15;;;4.65;;
64710;SDS011;51139;45.626;6.850;2023-02-25T08:09:05;13.27;;;5.70;;
64710;SDS011;51139;45.626;6.850;2023-02-25T08:11:32;12.98;;;4.90;;
64710;SDS011;51139;45.626;6.850;2023-02-25T08:13:58;13.70;;;4.85;;
64710;SDS011;51139;45.626;6.850;2023-02-25T08:16:24;16.00;;;5.22;;
64710;SDS011;51139;45.626;6.850;2023-02-25T08:18:49;15.27;;;4.63;;
64710;SDS011;51139;45.626;6.850;2023-02-25T08:21:17;14.48;;;5.63;;
64710;SDS011;51139;45.626;6.850;2023-02-25T08:23:45;14.57;;;4.97;;
64710;SDS011;51139;45.626;6.850;2023-02-25T08:26:12;14.02;;;4.68;;
64710;SDS011;51139;45.626;6.850;2023-02-25T08:28:41;19.42;;;4.82;;
64710;SDS011;51139;45.626;6.850;2023-02-25T08:31:07;13.57;;;4.57;;
64710;SDS011;51139;45.626;6.850;2023-02-25T08:33:35;12.50;;;4.60;;
64710;SDS011;51139;45.626;6.850;2023-02-25T08:36:08;15.70;;;4.88;;
64710;SDS011;51139;45.626;6.850;2023-02-25T08:38:38;14.45;;;5.32;;
64710;SDS011;51139;45.626;6.850;2023-02-25T08:41:04;10.93;;;4.15;;
64710;SDS011;51139;45.626;6.850;2023-02-25T08:43:31;14.50;;;5.10;;
64710;SDS011;51139;45.626;6.850;2023-02-25T08:45:56;11.80;;;4.07;;
64710;SDS011;51139;45.626;6.850;2023-02-25T08:48:22;11.73;;;4.70;;
64710;SDS011;51139;45.626;6.850;2023-02-25T08:50:47;11.27;;;4.40;;
64710;SDS011;51139;45.626;6.850;2023-02-25T08:53:13;11.48;;;4.22;;
64710;SDS011;51139;45.626;6.850;2023-02-25T08:55:38;18.73;;;4.57;;
64710;SDS011;51139;45.626;6.850;2023-02-25T08:58:04;11.60;;;4.10;;
64710;SDS011;51139;45.626;6.850;2023-02-25T09:00:30;14.55;;;4.13;;
64710;SDS011;51139;45.626;6.850;2023-02-25T09:02:56;12.23;;;3.80;;
64710;SDS011;51139;45.626;6.850;2023-02-25T09:05:21;13.93;;;4.50;;
64710;SDS011;51139;45.626;6.850;2023-02-25T09:07:48;11.80;;;4.20;;
64710;SDS011;51139;45.626;6.850;2023-02-25T09:10:17;12.73;;;5.10;;
64710;SDS011;51139;45.626;6.850;2023-02-25T09:12:43;13.80;;;4.28;;
64710;SDS011;51139;45.626;6.850;2023-02-25T09:15:09;10.07;;;4.28;;
64710;SDS011;51139;45.626;6.850;2023-02-25T09:17:36;14.38;;;4.78;;
64710;SDS011;51139;45.626;6.850;2023-02-25T09:20:02;12.45;;;4.57;;
64710;SDS011;51139;45.626;6.850;2023-02-25T09:22:31;10.82;;;4.45;;
64710;SDS011;51139;45.626;6.850;2023-02-25T09:24:59;12.32;;;4.25;;
64710;SDS011;51139;45.626;6.850;2023-02-25T09:27:25;16.52;;;5.45;;
64710;SDS011;51139;45.626;6.850;2023-02-25T09:29:50;12.15;;;4.20;;
64710;SDS011;51139;45.626;6.850;2023-02-25T09:32:17;12.35;;;4.68;;
64710;SDS011;51139;45.626;6.850;2023-02-25T09:34:44;14.70;;;4.95;;
64710;SDS011;51139;45.626;6.850;2023-02-25T09:37:10;11.93;;;5.03;;
64710;SDS011;51139;45.626;6.850;2023-02-25T09:39:38;11.77;;;4.80;;
64710;SDS011;51139;45.626;6.850;2023-02-25T09:42:06;16.50;;;6.88;;
64710;SDS011;51139;45.626;6.850;2023-02-25T09:44:36;17.00;;;5.55;;
64710;SDS011;51139;45.626;6.850;2023-02-25T09:47:10;16.35;;;5.63;;
64710;SDS011;51139;45.626;6.850;2023-02-25T09:52:49;12.23;;;5.35;;
64710;SDS011;51139;45.626;6.850;2023-02-25T09:55:30;12.38;;;4.93;;
64710;SDS011;51139;45.626;6.850;2023-02-25T09:58:01;15.05;;;5.68;;
64710;SDS011;51139;45.626;6.850;2023-02-25T10:00:49;19.88;;;6.65;;
64710;SDS011;51139;45.626;6.850;2023-02-25T10:03:31;10.68;;;3.53;;
64710;SDS011;51139;45.626;6.850;2023-02-25T10:11:47;12.18;;;4.57;;
64710;SDS011;51139;45.626;6.850;2023-02-25T10:22:38;12.20;;;4.57;;
64710;SDS011;51139;45.626;6.850;2023-02-25T10:25:20;12.15;;;4.50;;
64710;SDS011;51139;45.626;6.850;2023-02-25T10:28:10;9.90;;;4.10;;
64710;SDS011;51139;45.626;6.850;2023-02-25T10:33:14;19.63;;;5.53;;
64710;SDS011;51139;45.626;6.850;2023-02-25T10:35:45;9.68;;;4.45;;
64710;SDS011;51139;45.626;6.850;2023-02-25T10:38:15;13.05;;;4.20;;
64710;SDS011;51139;45.626;6.850;2023-02-25T10:40:41;13.63;;;5.20;;
64710;SDS011;51139;45.626;6.850;2023-02-25T10:43:19;12.88;;;4.63;;
64710;SDS011;51139;45.626;6.850;2023-02-25T10:45:53;13.23;;;4.65;;
64710;SDS011;51139;45.626;6.850;2023-02-25T10:48:24;13.00;;;5.07;;
64710;SDS011;51139;45.626;6.850;2023-02-25T10:53:33;11.80;;;4.65;;
64710;SDS011;51139;45.626;6.850;2023-02-25T10:55:59;12.20;;;4.47;;
64710;SDS011;51139;45.626;6.850;2023-02-25T11:00:54;14.00;;;5.75;;
64710;SDS011;51139;45.626;6.850;2023-02-25T11:03:23;12.00;;;4.60;;
64710;SDS011;51139;45.626;6.850;2023-02-25T11:05:50;10.90;;;5.10;;
64710;SDS011;51139;45.626;6.850;2023-02-25T11:08:33;13.25;;;4.90;;
64710;SDS011;51139;45.626;6.850;2023-02-25T11:13:28;11.93;;;4.55;;
64710;SDS011;51139;45.626;6.850;2023-02-25T11:15:55;9.10;;;4.15;;
64710;SDS011;51139;45.626;6.850;2023-02-25T11:18:29;9.20;;;3.80;;
64710;SDS011;51139;45.626;6.850;2023-02-25T11:23:28;10.32;;;4.43;;
64710;SDS011;51139;45.626;6.850;2023-02-25T11:25:58;13.55;;;5.20;;
64710;SDS011;51139;45.626;6.850;2023-02-25T11:28:39;13.48;;;4.20;;
64710;SDS011;51139;45.626;6.850;2023-02-25T11:31:21;9.50;;;4.30;;
64710;SDS011;51139;45.626;6.850;2023-02-25T11:33:58;13.55;;;3.90;;
64710;SDS011;51139;45.626;6.850;2023-02-25T11:36:30;8.63;;;3.80;;
64710;SDS011;51139;45.626;6.850;2023-02-25T11:39:05;11.27;;;4.07;;
64710;SDS011;51139;45.626;6.850;2023-02-25T11:41:43;9.65;;;4.00;;
64710;SDS011;51139;45.626;6.850;2023-02-25T11:44:27;15.38;;;3.72;;
64710;SDS011;51139;45.626;6.850;2023-02-25T11:46:57;10.60;;;3.67;;
64710;SDS011;51139;45.626;6.850;2023-02-25T11:49:37;12.70;;;3.85;;
64710;SDS011;51139;45.626;6.850;2023-02-25T11:52:08;9.85;;;3.72;;
64710;SDS011;51139;45.626;6.850;2023-02-25T12:00:28;9.00;;;3.13;;
64710;SDS011;51139;45.626;6.850;2023-02-25T12:25:47;9.07;;;3.33;;
64710;SDS011;51139;45.626;6.850;2023-02-25T12:37:00;9.82;;;3.58;;
64710;SDS011;51139;45.626;6.850;2023-02-25T12:39:51;7.97;;;2.97;;
64710;SDS011;51139;45.626;6.850;2023-02-25T12:43:12;9.30;;;3.38;;
64710;SDS011;51139;45.626;6.850;2023-02-25T12:48:24;11.35;;;3.85;;
64710;SDS011;51139;45.626;6.850;2023-02-25T12:59:19;8.00;;;3.67;;
64710;SDS011;51139;45.626;6.850;2023-02-25T13:07:55;7.60;;;3.47;;
64710;SDS011;51139;45.626;6.850;2023-02-25T13:16:11;9.82;;;3.97;;
64710;SDS011;51139;45.626;6.850;2023-02-25T13:18:42;11.38;;;3.90;;
64710;SDS011;51139;45.626;6.850;2023-02-25T13:21:23;8.95;;;3.33;;
64710;SDS011;51139;45.626;6.850;2023-02-25T13:32:46;8.55;;;3.03;;
64710;SDS011;51139;45.626;6.850;2023-02-25T13:38:22;12.55;;;4.32;;
64710;SDS011;51139;45.626;6.850;2023-02-25T14:00:17;13.82;;;3.88;;
64710;SDS011;51139;45.626;6.850;2023-02-25T14:03:21;7.13;;;3.10;;
64710;SDS011;51139;45.626;6.850;2023-02-25T14:09:00;10.48;;;3.88;;
64710;SDS011;51139;45.626;6.850;2023-02-25T14:14:05;10.60;;;3.70;;
64710;SDS011;51139;45.626;6.850;2023-02-25T14:20:20;9.73;;;3.28;;
64710;SDS011;51139;45.626;6.850;2023-02-25T14:23:24;8.95;;;3.30;;
64710;SDS011;51139;45.626;6.850;2023-02-25T14:32:04;8.20;;;2.75;;
64710;SDS011;51139;45.626;6.850;2023-02-25T14:37:22;8.30;;;3.00;;
64710;SDS011;51139;45.626;6.850;2023-02-25T14:42:37;8.63;;;2.95;;
64710;SDS011;51139;45.626;6.850;2023-02-25T14:47:41;6.75;;;3.15;;
64710;SDS011;51139;45.626;6.850;2023-02-25T14:52:50;7.68;;;2.90;;
64710;SDS011;51139;45.626;6.850;2023-02-25T14:55:32;8.15;;;2.88;;
64710;SDS011;51139;45.626;6.850;2023-02-25T15:23:21;9.35;;;3.15;;
64710;SDS011;51139;45.626;6.850;2023-02-25T15:28:41;8.52;;;3.28;;
64710;SDS011;51139;45.626;6.850;2023-02-25T15:33:40;8.57;;;2.80;;
64710;SDS011;51139;45.626;6.850;2023-02-25T15:38:51;7.93;;;3.22;;
64710;SDS011;51139;45.626;6.850;2023-02-25T15:43:53;9.30;;;3.13;;
64710;SDS011;51139;45.626;6.850;2023-02-25T15:49:34;7.45;;;3.42;;
64710;SDS011;51139;45.626;6.850;2023-02-25T15:51:47;10.38;;;3.50;;
64710;SDS011;51139;45.626;6.850;2023-02-25T15:56:51;6.38;;;3.17;;
64710;SDS011;51139;45.626;6.850;2023-02-25T16:04:59;9.60;;;4.72;;
64710;SDS011;51139;45.626;6.850;2023-02-25T16:10:08;7.45;;;3.00;;
64710;SDS011;51139;45.626;6.850;2023-02-25T16:12:49;7.35;;;3.05;;
64710;SDS011;51139;45.626;6.850;2023-02-25T16:15:35;11.73;;;3.88;;
64710;SDS011;51139;45.626;6.850;2023-02-25T16:18:15;5.28;;;2.58;;
64710;SDS011;51139;45.626;6.850;2023-02-25T16:20:45;7.32;;;3.30;;
64710;SDS011;51139;45.626;6.850;2023-02-25T16:23:17;5.88;;;2.47;;
64710;SDS011;51139;45.626;6.850;2023-02-25T16:31:00;8.90;;;2.40;;
64710;SDS011;51139;45.626;6.850;2023-02-25T16:36:04;6.53;;;2.38;;
64710;SDS011;51139;45.626;6.850;2023-02-25T16:38:48;7.63;;;2.10;;
64710;SDS011;51139;45.626;6.850;2023-02-25T16:41:15;4.28;;;2.13;;
64710;SDS011;51139;45.626;6.850;2023-02-25T16:43:41;7.30;;;2.40;;
64710;SDS011;51139;45.626;6.850;2023-02-25T16:46:12;8.85;;;2.53;;
64710;SDS011;51139;45.626;6.850;2023-02-25T16:48:45;5.93;;;2.40;;
64710;SDS011;51139;45.626;6.850;2023-02-25T16:51:25;7.43;;;3.10;;
64710;SDS011;51139;45.626;6.850;2023-02-25T16:54:04;8.57;;;2.90;;
64710;SDS011;51139;45.626;6.850;2023-02-25T16:56:33;6.72;;;2.40;;
64710;SDS011;51139;45.626;6.850;2023-02-25T17:01:29;4.97;;;2.25;;
64710;SDS011;51139;45.626;6.850;2023-02-25T17:04:10;5.25;;;2.40;;
64710;SDS011;51139;45.626;6.850;2023-02-25T17:06:39;6.70;;;2.88;;
64710;SDS011;51139;45.626;6.850;2023-02-25T17:09:04;6.57;;;2.13;;
64710;SDS011;51139;45.626;6.850;2023-02-25T17:11:30;10.52;;;3.10;;
64710;SDS011;51139;45.626;6.850;2023-02-25T17:13:56;5.85;;;3.25;;
64710;SDS011;51139;45.626;6.850;2023-02-25T17:16:27;9.43;;;2.65;;
64710;SDS011;51139;45.626;6.850;2023-02-25T17:18:56;6.82;;;2.40;;
64710;SDS011;51139;45.626;6.850;2023-02-25T17:23:53;4.68;;;2.22;;
64710;SDS011;51139;45.626;6.850;2023-02-25T17:26:21;5.78;;;2.53;;
64710;SDS011;51139;45.626;6.850;2023-02-25T17:28:48;10.18;;;3.95;;
64710;SDS011;51139;45.626;6.850;2023-02-25T17:31:19;6.45;;;3.17;;
64710;SDS011;51139;45.626;6.850;2023-02-25T17:33:58;8.95;;;3.75;;
64710;SDS011;51139;45.626;6.850;2023-02-25T17:36:28;8.07;;;2.95;;
64710;SDS011;51139;45.626;6.850;2023-02-25T17:38:58;8.93;;;3.60;;
64710;SDS011;51139;45.626;6.850;2023-02-25T17:41:26;12.60;;;4.63;;
64710;SDS011;51139;45.626;6.850;2023-02-25T17:43:52;7.75;;;3.13;;
64710;SDS011;51139;45.626;6.850;2023-02-25T17:48:50;5.72;;;2.97;;
64710;SDS011;51139;45.626;6.850;2023-02-25T17:51:17;10.88;;;6.00;;
64710;SDS011;51139;45.626;6.850;2023-02-25T17:53:54;8.02;;;3.53;;
64710;SDS011;51139;45.626;6.850;2023-02-25T17:56:23;8.15;;;3.45;;
64710;SDS011;51139;45.626;6.850;2023-02-25T17:58:52;8.20;;;3.20;;
64710;SDS011;51139;45.626;6.850;2023-02-25T18:01:23;9.13;;;3.35;;
64710;SDS011;51139;45.626;6.850;2023-02-25T18:03:51;7.35;;;4.05;;
64710;SDS011;51139;45.626;6.850;2023-02-25T18:06:27;12.57;;;2.95;;
64710;SDS011;51139;45.626;6.850;2023-02-25T18:08:54;10.38;;;3.25;;
64710;SDS011;51139;45.626;6.850;2023-02-25T18:11:31;11.15;;;5.05;;
64710;SDS011;51139;45.626;6.850;2023-02-25T18:16:50;16.23;;;7.82;;
64710;SDS011;51139;45.626;6.850;2023-02-25T18:19:24;15.15;;;6.10;;
64710;SDS011;51139;45.626;6.850;2023-02-25T18:21:51;28.45;;;14.52;;
64710;SDS011;51139;45.626;6.850;2023-02-25T18:24:28;20.63;;;11.90;;
64710;SDS011;51139;45.626;6.850;2023-02-25T18:29:48;21.63;;;12.43;;
64710;SDS011;51139;45.626;6.850;2023-02-25T18:32:14;23.95;;;12.85;;
64710;SDS011;51139;45.626;6.850;2023-02-25T18:34:40;27.15;;;13.25;;
64710;SDS011;51139;45.626;6.850;2023-02-25T18:37:05;8.73;;;3.88;;
64710;SDS011;51139;45.626;6.850;2023-02-25T18:39:30;7.32;;;3.00;;
64710;SDS011;51139;45.626;6.850;2023-02-25T18:41:56;7.53;;;3.35;;
64710;SDS011;51139;45.626;6.850;2023-02-25T18:44:21;8.45;;;2.85;;
64710;SDS011;51139;45.626;6.850;2023-02-25T18:46:47;6.00;;;2.70;;
64710;SDS011;51139;45.626;6.850;2023-02-25T18:49:12;5.13;;;2.50;;
64710;SDS011;51139;45.626;6.850;2023-02-25T18:51:37;4.35;;;2.45;;
64710;SDS011;51139;45.626;6.850;2023-02-25T18:54:03;6.60;;;2.35;;